sensor_id;sensor_type;location;lat;lon;timestamp;pressure;altitude;pressure_sealevel;temperature;humidity
33155;BME280;19511;42.682;23.332;2023-07-09T00:01:53;95562.56;;;19.39;100.00
33155;BME280;19511;42.682;23.332;2023-07-09T00:04:18;95565.09;;;19.46;100.00
33155;BME280;19511;42.682;23.332;2023-07-09T00:06:44;95509.06;;;19.02;100.00
33155;BME280;19511;42.682;23.332;2023-07-09T00:09:15;95552.88;;;19.40;100.00
33155;BME280;19511;42.682;23.332;2023-07-09T00:11:42;95552.75;;;19.44;100.00
33155;BME280;19511;42.682;23.332;2023-07-09T00:14:09;95499.28;;;19.06;100.00
33155;BME280;19511;42.682;23.332;2023-07-09T00:16:35;95554.66;;;19.47;100.00
33155;BME280;19511;42.682;23.332;2023-07-09T00:19:02;95553.88;;;19.46;100.00
33155;BME280;19511;42.682;23.332;2023-07-09T00:21:28;95549.81;;;19.47;100.00
33155;BME280;19511;42.682;23.332;2023-07-09T00:24:01;95552.03;;;19.52;100.00
33155;BME280;19511;42.682;23.332;2023-07-09T00:26:30;95543.44;;;19.47;100.00
33155;BME280;19511;42.682;23.332;2023-07-09T00:28:57;95547.06;;;19.56;100.00
33155;BME280;19511;42.682;23.332;2023-07-09T00:31:23;95543.16;;;19.54;100.00
33155;BME280;19511;42.682;23.332;2023-07-09T00:33:48;95547.34;;;19.49;100.00
33155;BME280;19511;42.682;23.332;2023-07-09T00:36:21;95551.72;;;19.50;100.00
33155;BME280;19511;42.682;23.332;2023-07-09T00:38:49;95537.69;;;19.50;100.00
33155;BME280;19511;42.682;23.332;2023-07-09T00:41:21;95545.31;;;19.50;100.00
33155;BME280;19511;42.682;23.332;2023-07-09T00:43:49;95551.66;;;19.41;100.00
33155;BME280;19511;42.682;23.332;2023-07-09T00:49:07;95474.13;;;18.93;100.00
33155;BME280;19511;42.682;23.332;2023-07-09T00:51:38;95531.59;;;19.20;100.00
33155;BME280;19511;42.682;23.332;2023-07-09T00:54:41;95543.19;;;19.32;100.00
33155;BME280;19511;42.682;23.332;2023-07-09T00:57:14;95529.94;;;19.32;100.00
33155;BME280;19511;42.682;23.332;2023-07-09T00:59:45;95533.25;;;19.40;100.00
33155;BME280;19511;42.682;23.332;2023-07-09T01:02:13;95490.41;;;19.08;100.00
33155;BME280;19511;42.682;23.332;2023-07-09T01:04:40;95535.75;;;19.38;100.00
33155;BME280;19511;42.682;23.332;2023-07-09T01:07:06;95536.94;;;19.28;100.00
33155;BME280;19511;42.682;23.332;2023-07-09T01:09:32;95539.16;;;19.33;100.00
33155;BME280;19511;42.682;23.332;2023-07-09T01:12:08;95538.81;;;19.31;100.00
33155;BME280;19511;42.682;23.332;2023-07-09T01:14:34;95465.06;;;18.89;100.00
33155;BME280;19511;42.682;23.332;2023-07-09T01:17:05;95525.72;;;19.28;100.00
33155;BME280;19511;42.682;23.332;2023-07-09T01:19:38;95526.00;;;19.20;100.00
33155;BME280;19511;42.682;23.332;2023-07-09T01:22:13;95520.72;;;19.22;100.00
33155;BME280;19511;42.682;23.332;2023-07-09T01:27:22;95523.53;;;19.22;100.00
33155;BME280;19511;42.682;23.332;2023-07-09T01:29:48;95522.47;;;19.07;100.00
33155;BME280;19511;42.682;23.332;2023-07-09T01:32:21;95516.56;;;19.05;100.00
33155;BME280;19511;42.682;23.332;2023-07-09T01:34:49;95523.16;;;19.11;100.00
33155;BME280;19511;42.682;23.332;2023-07-09T01:37:21;95464.16;;;18.70;100.00
33155;BME280;19511;42.682;23.332;2023-07-09T01:39:47;95428.25;;;18.34;100.00
33155;BME280;19511;42.682;23.332;2023-07-09T01:42:15;95462.56;;;18.47;100.00
33155;BME280;19511;42.682;23.332;2023-07-09T01:44:43;95529.31;;;18.84;100.00
33155;BME280;19511;42.682;23.332;2023-07-09T01:47:08;95535.63;;;18.75;100.00
33155;BME280;19511;42.682;23.332;2023-07-09T01:49:34;95540.00;;;18.76;100.00
33155;BME280;19511;42.682;23.332;2023-07-09T01:52:03;95470.44;;;18.17;100.00
33155;BME280;19511;42.682;23.332;2023-07-09T01:54:30;95530.94;;;18.37;100.00
33155;BME280;19511;42.682;23.332;2023-07-09T01:57:13;95527.50;;;18.33;100.00
33155;BME280;19511;42.682;23.332;2023-07-09T01:59:39;95539.03;;;18.35;100.00
33155;BME280;19511;42.682;23.332;2023-07-09T02:02:07;95550.94;;;18.26;100.00
33155;BME280;19511;42.682;23.332;2023-07-09T02:04:32;95485.56;;;17.81;100.00
33155;BME280;19511;42.682;23.332;2023-07-09T02:06:58;95543.75;;;18.25;100.00
33155;BME280;19511;42.682;23.332;2023-07-09T02:09:23;95546.91;;;18.14;100.00
33155;BME280;19511;42.682;23.332;2023-07-09T02:11:49;95546.13;;;18.14;100.00
33155;BME280;19511;42.682;23.332;2023-07-09T02:14:14;95538.75;;;18.07;100.00
33155;BME280;19511;42.682;23.332;2023-07-09T02:16:39;95531.59;;;18.06;100.00
33155;BME280;19511;42.682;23.332;2023-07-09T02:19:05;95549.16;;;18.06;100.00
33155;BME280;19511;42.682;23.332;2023-07-09T02:21:31;95473.97;;;17.57;100.00
33155;BME280;19511;42.682;23.332;2023-07-09T02:23:56;95549.53;;;17.95;100.00
33155;BME280;19511;42.682;23.332;2023-07-09T02:26:22;95553.28;;;17.89;100.00
33155;BME280;19511;42.682;23.332;2023-07-09T02:28:47;95546.81;;;17.79;100.00
33155;BME280;19511;42.682;23.332;2023-07-09T02:31:13;95546.69;;;17.70;100.00
33155;BME280;19511;42.682;23.332;2023-07-09T02:33:41;95552.06;;;17.64;100.00
33155;BME280;19511;42.682;23.332;2023-07-09T02:36:06;95549.13;;;17.42;100.00
33155;BME280;19511;42.682;23.332;2023-07-09T02:38:32;95569.59;;;17.39;100.00
33155;BME280;19511;42.682;23.332;2023-07-09T02:40:57;95560.09;;;17.23;100.00
33155;BME280;19511;42.682;23.332;2023-07-09T02:43:22;95572.50;;;17.22;100.00
33155;BME280;19511;42.682;23.332;2023-07-09T02:45:48;95510.34;;;16.59;100.00
33155;BME280;19511;42.682;23.332;2023-07-09T02:48:13;95572.59;;;16.89;100.00
33155;BME280;19511;42.682;23.332;2023-07-09T02:50:39;95584.47;;;16.93;100.00
33155;BME280;19511;42.682;23.332;2023-07-09T02:53:04;95575.66;;;16.95;100.00
33155;BME280;19511;42.682;23.332;2023-07-09T02:55:30;95574.59;;;17.05;100.00
33155;BME280;19511;42.682;23.332;2023-07-09T02:57:55;95578.88;;;16.93;100.00
33155;BME280;19511;42.682;23.332;2023-07-09T03:00:20;95595.84;;;16.86;100.00
33155;BME280;19511;42.682;23.332;2023-07-09T03:02:46;95535.03;;;16.31;100.00
33155;BME280;19511;42.682;23.332;2023-07-09T03:05:11;95537.34;;;16.20;100.00
33155;BME280;19511;42.682;23.332;2023-07-09T03:07:37;95603.56;;;16.65;100.00
33155;BME280;19511;42.682;23.332;2023-07-09T03:10:02;95609.13;;;16.65;100.00
33155;BME280;19511;42.682;23.332;2023-07-09T03:12:31;95605.25;;;16.46;100.00
33155;BME280;19511;42.682;23.332;2023-07-09T03:14:56;95606.81;;;16.31;100.00
33155;BME280;19511;42.682;23.332;2023-07-09T03:17:22;95598.81;;;16.00;100.00
33155;BME280;19511;42.682;23.332;2023-07-09T03:19:47;95544.78;;;15.57;100.00
33155;BME280;19511;42.682;23.332;2023-07-09T03:22:13;95607.72;;;15.95;100.00
33155;BME280;19511;42.682;23.332;2023-07-09T03:24:38;95618.06;;;15.94;100.00
33155;BME280;19511;42.682;23.332;2023-07-09T03:27:04;95609.97;;;16.00;100.00
33155;BME280;19511;42.682;23.332;2023-07-09T03:29:29;95617.53;;;15.99;100.00
33155;BME280;19511;42.682;23.332;2023-07-09T03:31:55;95610.31;;;16.02;100.00
33155;BME280;19511;42.682;23.332;2023-07-09T03:34:20;95618.59;;;16.06;100.00
33155;BME280;19511;42.682;23.332;2023-07-09T03:36:46;95606.56;;;15.92;100.00
33155;BME280;19511;42.682;23.332;2023-07-09T03:39:12;95610.81;;;15.97;100.00
33155;BME280;19511;42.682;23.332;2023-07-09T03:41:37;95608.13;;;15.93;100.00
33155;BME280;19511;42.682;23.332;2023-07-09T03:44:03;95615.97;;;15.98;100.00
33155;BME280;19511;42.682;23.332;2023-07-09T03:46:28;95607.50;;;15.86;100.00
33155;BME280;19511;42.682;23.332;2023-07-09T03:48:58;95620.53;;;15.92;100.00
33155;BME280;19511;42.682;23.332;2023-07-09T03:51:24;95606.28;;;15.87;100.00
33155;BME280;19511;42.682;23.332;2023-07-09T03:53:49;95617.91;;;16.02;100.00
33155;BME280;19511;42.682;23.332;2023-07-09T03:56:16;95612.41;;;15.98;100.00
33155;BME280;19511;42.682;23.332;2023-07-09T03:58:42;95558.06;;;15.70;100.00
33155;BME280;19511;42.682;23.332;2023-07-09T04:01:08;95621.47;;;16.19;100.00
33155;BME280;19511;42.682;23.332;2023-07-09T04:03:33;95611.81;;;16.23;100.00
33155;BME280;19511;42.682;23.332;2023-07-09T04:06:03;95610.50;;;16.28;100.00
33155;BME280;19511;42.682;23.332;2023-07-09T04:08:29;95636.28;;;16.65;100.00
33155;BME280;19511;42.682;23.332;2023-07-09T04:10:58;95568.97;;;16.30;100.00
33155;BME280;19511;42.682;23.332;2023-07-09T04:13:30;95555.22;;;16.23;100.00
33155;BME280;19511;42.682;23.332;2023-07-09T04:15:58;95580.31;;;16.39;100.00
33155;BME280;19511;42.682;23.332;2023-07-09T04:18:24;95634.69;;;16.80;100.00
33155;BME280;19511;42.682;23.332;2023-07-09T04:20:50;95634.97;;;17.16;100.00
33155;BME280;19511;42.682;23.332;2023-07-09T04:23:16;95637.72;;;18.13;100.00
33155;BME280;19511;42.682;23.332;2023-07-09T04:25:42;95640.38;;;18.55;100.00
33155;BME280;19511;42.682;23.332;2023-07-09T04:28:07;95632.81;;;19.13;100.00
33155;BME280;19511;42.682;23.332;2023-07-09T04:30:35;95638.63;;;19.19;100.00
33155;BME280;19511;42.682;23.332;2023-07-09T04:33:01;95632.44;;;19.24;100.00
33155;BME280;19511;42.682;23.332;2023-07-09T04:35:26;95588.00;;;19.00;100.00
33155;BME280;19511;42.682;23.332;2023-07-09T04:37:51;95635.41;;;19.30;100.00
33155;BME280;19511;42.682;23.332;2023-07-09T04:40:18;95643.38;;;19.09;100.00
33155;BME280;19511;42.682;23.332;2023-07-09T04:42:45;95604.38;;;18.89;100.00
33155;BME280;19511;42.682;23.332;2023-07-09T04:45:15;95639.53;;;19.16;100.00
33155;BME280;19511;42.682;23.332;2023-07-09T04:47:40;95634.78;;;19.25;100.00
33155;BME280;19511;42.682;23.332;2023-07-09T04:50:07;95633.47;;;19.17;100.00
33155;BME280;19511;42.682;23.332;2023-07-09T04:52:36;95637.97;;;19.15;100.00
33155;BME280;19511;42.682;23.332;2023-07-09T04:55:02;95643.19;;;19.25;100.00
33155;BME280;19511;42.682;23.332;2023-07-09T04:57:28;95634.66;;;19.29;100.00
33155;BME280;19511;42.682;23.332;2023-07-09T04:59:55;95637.53;;;19.16;100.00
33155;BME280;19511;42.682;23.332;2023-07-09T05:02:22;95638.94;;;19.21;100.00
33155;BME280;19511;42.682;23.332;2023-07-09T05:04:50;95620.59;;;19.07;100.00
33155;BME280;19511;42.682;23.332;2023-07-09T05:07:16;95635.53;;;19.26;100.00
33155;BME280;19511;42.682;23.332;2023-07-09T05:09:41;95647.97;;;19.38;100.00
33155;BME280;19511;42.682;23.332;2023-07-09T05:12:07;95619.25;;;19.34;100.00
33155;BME280;19511;42.682;23.332;2023-07-09T05:14:33;95601.00;;;19.29;100.00
33155;BME280;19511;42.682;23.332;2023-07-09T05:16:59;95600.06;;;19.32;100.00
33155;BME280;19511;42.682;23.332;2023-07-09T05:19:24;95606.56;;;19.51;100.00
33155;BME280;19511;42.682;23.332;2023-07-09T05:21:49;95644.91;;;19.99;100.00
33155;BME280;19511;42.682;23.332;2023-07-09T05:24:15;95596.72;;;19.78;100.00
33155;BME280;19511;42.682;23.332;2023-07-09T05:26:40;95653.47;;;20.27;100.00
33155;BME280;19511;42.682;23.332;2023-07-09T05:29:07;95658.97;;;20.39;100.00
33155;BME280;19511;42.682;23.332;2023-07-09T05:31:33;95642.91;;;20.49;100.00
33155;BME280;19511;42.682;23.332;2023-07-09T05:34:03;95649.94;;;20.54;100.00
33155;BME280;19511;42.682;23.332;2023-07-09T05:36:31;95632.94;;;20.58;100.00
33155;BME280;19511;42.682;23.332;2023-07-09T05:38:56;95638.41;;;20.61;100.00
33155;BME280;19511;42.682;23.332;2023-07-09T05:41:22;95639.03;;;20.65;100.00
33155;BME280;19511;42.682;23.332;2023-07-09T05:43:49;95583.25;;;20.36;100.00
33155;BME280;19511;42.682;23.332;2023-07-09T05:46:15;95638.13;;;20.68;100.00
33155;BME280;19511;42.682;23.332;2023-07-09T05:48:40;95635.81;;;20.76;100.00
33155;BME280;19511;42.682;23.332;2023-07-09T05:51:06;95643.63;;;20.81;100.00
33155;BME280;19511;42.682;23.332;2023-07-09T05:53:31;95634.44;;;20.90;100.00
33155;BME280;19511;42.682;23.332;2023-07-09T05:55:58;95645.19;;;20.92;100.00
33155;BME280;19511;42.682;23.332;2023-07-09T05:58:24;95588.59;;;20.52;100.00
33155;BME280;19511;42.682;23.332;2023-07-09T06:00:54;95600.16;;;20.54;100.00
33155;BME280;19511;42.682;23.332;2023-07-09T06:03:23;95589.53;;;20.59;100.00
33155;BME280;19511;42.682;23.332;2023-07-09T06:05:49;95639.28;;;20.99;100.00
33155;BME280;19511;42.682;23.332;2023-07-09T06:08:19;95589.41;;;20.71;100.00
33155;BME280;19511;42.682;23.332;2023-07-09T06:13:17;95559.91;;;20.76;100.00
33155;BME280;19511;42.682;23.332;2023-07-09T06:15:43;95625.34;;;21.32;100.00
33155;BME280;19511;42.682;23.332;2023-07-09T06:18:09;95583.63;;;21.21;100.00
33155;BME280;19511;42.682;23.332;2023-07-09T06:20:34;95596.59;;;21.28;100.00
33155;BME280;19511;42.682;23.332;2023-07-09T06:22:59;95622.53;;;21.51;100.00
33155;BME280;19511;42.682;23.332;2023-07-09T06:25:25;95616.41;;;21.52;100.00
33155;BME280;19511;42.682;23.332;2023-07-09T06:27:51;95625.94;;;21.64;100.00
33155;BME280;19511;42.682;23.332;2023-07-09T06:30:16;95563.47;;;21.23;100.00
33155;BME280;19511;42.682;23.332;2023-07-09T06:32:45;95611.09;;;21.54;100.00
33155;BME280;19511;42.682;23.332;2023-07-09T06:35:10;95568.63;;;21.06;100.00
33155;BME280;19511;42.682;23.332;2023-07-09T06:37:36;95621.28;;;21.43;100.00
33155;BME280;19511;42.682;23.332;2023-07-09T06:40:02;95617.53;;;21.46;100.00
33155;BME280;19511;42.682;23.332;2023-07-09T06:42:28;95572.38;;;21.31;100.00
33155;BME280;19511;42.682;23.332;2023-07-09T06:44:53;95617.03;;;21.66;100.00
33155;BME280;19511;42.682;23.332;2023-07-09T06:47:19;95564.53;;;21.35;100.00
33155;BME280;19511;42.682;23.332;2023-07-09T06:49:44;95627.97;;;21.73;100.00
33155;BME280;19511;42.682;23.332;2023-07-09T06:52:11;95618.72;;;21.82;100.00
33155;BME280;19511;42.682;23.332;2023-07-09T06:54:36;95619.00;;;21.93;100.00
33155;BME280;19511;42.682;23.332;2023-07-09T06:57:02;95605.09;;;21.90;100.00
33155;BME280;19511;42.682;23.332;2023-07-09T06:59:27;95616.56;;;22.10;100.00
33155;BME280;19511;42.682;23.332;2023-07-09T07:01:53;95565.50;;;21.93;100.00
33155;BME280;19511;42.682;23.332;2023-07-09T07:04:18;95621.81;;;22.27;100.00
33155;BME280;19511;42.682;23.332;2023-07-09T07:06:44;95618.81;;;22.40;100.00
33155;BME280;19511;42.682;23.332;2023-07-09T07:09:10;95620.69;;;22.43;100.00
33155;BME280;19511;42.682;23.332;2023-07-09T07:11:38;95618.59;;;22.53;100.00
33155;BME280;19511;42.682;23.332;2023-07-09T07:14:04;95562.22;;;22.19;100.00
33155;BME280;19511;42.682;23.332;2023-07-09T07:16:29;95604.78;;;22.55;100.00
33155;BME280;19511;42.682;23.332;2023-07-09T07:18:54;95567.00;;;22.37;100.00
33155;BME280;19511;42.682;23.332;2023-07-09T07:21:20;95616.25;;;22.75;100.00
33155;BME280;19511;42.682;23.332;2023-07-09T07:23:45;95557.88;;;22.42;100.00
33155;BME280;19511;42.682;23.332;2023-07-09T07:26:11;95590.66;;;22.64;100.00
33155;BME280;19511;42.682;23.332;2023-07-09T07:28:36;95610.59;;;22.75;100.00
33155;BME280;19511;42.682;23.332;2023-07-09T07:31:05;95609.97;;;22.80;100.00
33155;BME280;19511;42.682;23.332;2023-07-09T07:33:30;95599.09;;;22.88;100.00
33155;BME280;19511;42.682;23.332;2023-07-09T07:35:56;95599.34;;;22.99;100.00
33155;BME280;19511;42.682;23.332;2023-07-09T07:38:22;95603.28;;;23.17;100.00
33155;BME280;19511;42.682;23.332;2023-07-09T07:40:47;95592.38;;;23.25;100.00
33155;BME280;19511;42.682;23.332;2023-07-09T07:43:13;95594.34;;;23.34;100.00
33155;BME280;19511;42.682;23.332;2023-07-09T07:45:42;95590.66;;;23.42;100.00
33155;BME280;19511;42.682;23.332;2023-07-09T07:48:08;95593.97;;;23.41;100.00
33155;BME280;19511;42.682;23.332;2023-07-09T07:50:34;95606.06;;;23.56;100.00
33155;BME280;19511;42.682;23.332;2023-07-09T07:53:00;95585.22;;;23.54;100.00
33155;BME280;19511;42.682;23.332;2023-07-09T07:55:25;95596.41;;;23.48;100.00
33155;BME280;19511;42.682;23.332;2023-07-09T07:57:50;95608.00;;;23.50;100.00
33155;BME280;19511;42.682;23.332;2023-07-09T08:00:16;95606.16;;;23.47;100.00
33155;BME280;19511;42.682;23.332;2023-07-09T08:02:42;95592.69;;;23.27;100.00
33155;BME280;19511;42.682;23.332;2023-07-09T08:05:07;95595.13;;;23.34;100.00
33155;BME280;19511;42.682;23.332;2023-07-09T08:07:33;95590.47;;;23.46;100.00
33155;BME280;19511;42.682;23.332;2023-07-09T08:09:58;95572.16;;;23.41;100.00
33155;BME280;19511;42.682;23.332;2023-07-09T08:12:24;95585.13;;;23.63;100.00
33155;BME280;19511;42.682;23.332;2023-07-09T08:14:49;95586.97;;;23.81;100.00
33155;BME280;19511;42.682;23.332;2023-07-09T08:17:15;95571.69;;;24.03;100.00
33155;BME280;19511;42.682;23.332;2023-07-09T08:19:45;95577.38;;;24.23;100.00
33155;BME280;19511;42.682;23.332;2023-07-09T08:22:11;95572.75;;;24.41;100.00
33155;BME280;19511;42.682;23.332;2023-07-09T08:24:37;95540.66;;;24.08;100.00
33155;BME280;19511;42.682;23.332;2023-07-09T08:27:02;95581.22;;;24.41;100.00
33155;BME280;19511;42.682;23.332;2023-07-09T08:29:28;95574.03;;;24.60;100.00
33155;BME280;19511;42.682;23.332;2023-07-09T08:31:54;95561.31;;;24.71;100.00
33155;BME280;19511;42.682;23.332;2023-07-09T08:34:19;95562.19;;;24.77;100.00
33155;BME280;19511;42.682;23.332;2023-07-09T08:36:44;95558.44;;;24.65;100.00
33155;BME280;19511;42.682;23.332;2023-07-09T08:39:10;95567.63;;;24.81;100.00
33155;BME280;19511;42.682;23.332;2023-07-09T08:47:01;95570.50;;;25.07;100.00
33155;BME280;19511;42.682;23.332;2023-07-09T08:49:54;95567.31;;;24.58;100.00
33155;BME280;19511;42.682;23.332;2023-07-09T08:57:36;95570.03;;;24.88;100.00
33155;BME280;19511;42.682;23.332;2023-07-09T09:02:58;95572.16;;;24.93;100.00
33155;BME280;19511;42.682;23.332;2023-07-09T09:05:25;95519.94;;;24.73;100.00
33155;BME280;19511;42.682;23.332;2023-07-09T09:07:58;95581.34;;;25.08;100.00
33155;BME280;19511;42.682;23.332;2023-07-09T09:10:36;95558.81;;;25.20;100.00
33155;BME280;19511;42.682;23.332;2023-07-09T09:13:10;95572.69;;;25.38;100.00
33155;BME280;19511;42.682;23.332;2023-07-09T09:15:39;95567.13;;;25.50;100.00
33155;BME280;19511;42.682;23.332;2023-07-09T09:18:26;95561.09;;;25.68;100.00
33155;BME280;19511;42.682;23.332;2023-07-09T09:21:17;95559.50;;;25.62;99.63
33155;BME280;19511;42.682;23.332;2023-07-09T09:23:51;95557.28;;;25.71;100.00
33155;BME280;19511;42.682;23.332;2023-07-09T09:26:27;95559.00;;;25.63;97.18
33155;BME280;19511;42.682;23.332;2023-07-09T09:28:54;95560.59;;;25.70;98.12
33155;BME280;19511;42.682;23.332;2023-07-09T09:31:21;95554.97;;;25.43;98.76
33155;BME280;19511;42.682;23.332;2023-07-09T09:33:48;95560.28;;;25.62;100.00
33155;BME280;19511;42.682;23.332;2023-07-09T09:36:23;95531.59;;;25.49;97.82
33155;BME280;19511;42.682;23.332;2023-07-09T09:38:49;95553.34;;;25.37;97.26
33155;BME280;19511;42.682;23.332;2023-07-09T09:41:30;95546.97;;;25.21;100.00
33155;BME280;19511;42.682;23.332;2023-07-09T09:43:56;95558.16;;;25.57;100.00
33155;BME280;19511;42.682;23.332;2023-07-09T09:46:26;95553.94;;;25.73;97.85
33155;BME280;19511;42.682;23.332;2023-07-09T09:48:58;95556.38;;;25.86;97.47
33155;BME280;19511;42.682;23.332;2023-07-09T09:51:28;95540.91;;;25.87;98.30
33155;BME280;19511;42.682;23.332;2023-07-09T09:54:01;95498.03;;;25.73;96.81
33155;BME280;19511;42.682;23.332;2023-07-09T09:56:35;95548.72;;;25.98;97.93
33155;BME280;19511;42.682;23.332;2023-07-09T09:59:03;95549.63;;;25.78;95.53
33155;BME280;19511;42.682;23.332;2023-07-09T10:01:34;95548.41;;;25.58;95.72
33155;BME280;19511;42.682;23.332;2023-07-09T10:04:04;95553.06;;;25.35;95.22
33155;BME280;19511;42.682;23.332;2023-07-09T10:06:34;95531.63;;;25.28;95.19
33155;BME280;19511;42.682;23.332;2023-07-09T10:11:49;95539.34;;;25.54;93.70
33155;BME280;19511;42.682;23.332;2023-07-09T10:17:38;95534.63;;;25.71;94.67
33155;BME280;19511;42.682;23.332;2023-07-09T10:20:21;95525.63;;;25.73;92.63
33155;BME280;19511;42.682;23.332;2023-07-09T10:22:55;95532.78;;;25.68;92.56
33155;BME280;19511;42.682;23.332;2023-07-09T10:25:44;95524.75;;;25.61;92.63
33155;BME280;19511;42.682;23.332;2023-07-09T10:39:00;95524.34;;;26.55;91.29
33155;BME280;19511;42.682;23.332;2023-07-09T10:41:28;95527.72;;;26.59;90.23
33155;BME280;19511;42.682;23.332;2023-07-09T10:44:03;95509.19;;;26.69;86.00
33155;BME280;19511;42.682;23.332;2023-07-09T10:46:33;95513.06;;;26.72;86.96
33155;BME280;19511;42.682;23.332;2023-07-09T10:49:00;95511.84;;;26.79;87.68
33155;BME280;19511;42.682;23.332;2023-07-09T10:51:41;95468.97;;;26.65;91.01
33155;BME280;19511;42.682;23.332;2023-07-09T10:56:47;95508.91;;;26.67;82.44
33155;BME280;19511;42.682;23.332;2023-07-09T10:59:32;95513.03;;;26.61;85.68
33155;BME280;19511;42.682;23.332;2023-07-09T11:02:13;95514.78;;;26.47;84.07
33155;BME280;19511;42.682;23.332;2023-07-09T11:04:49;95510.91;;;26.50;85.65
33155;BME280;19511;42.682;23.332;2023-07-09T11:07:33;95513.84;;;26.67;84.47
33155;BME280;19511;42.682;23.332;2023-07-09T11:10:12;95497.88;;;26.75;85.47
33155;BME280;19511;42.682;23.332;2023-07-09T11:13:20;95510.88;;;26.93;82.19
33155;BME280;19511;42.682;23.332;2023-07-09T11:15:44;95505.47;;;27.07;82.37
33155;BME280;19511;42.682;23.332;2023-07-09T11:18:29;95510.91;;;27.27;80.01
33155;BME280;19511;42.682;23.332;2023-07-09T11:21:07;95503.91;;;27.00;80.13
33155;BME280;19511;42.682;23.332;2023-07-09T11:23:54;95506.81;;;27.23;81.13
33155;BME280;19511;42.682;23.332;2023-07-09T11:29:15;95512.53;;;27.45;79.35
33155;BME280;19511;42.682;23.332;2023-07-09T11:31:47;95454.66;;;27.26;82.76
33155;BME280;19511;42.682;23.332;2023-07-09T11:36:58;95490.59;;;27.68;79.85
33155;BME280;19511;42.682;23.332;2023-07-09T11:44:54;95445.16;;;27.40;81.38
33155;BME280;19511;42.682;23.332;2023-07-09T11:47:32;95481.28;;;27.74;81.82
33155;BME280;19511;42.682;23.332;2023-07-09T11:50:28;95493.94;;;27.78;86.16
33155;BME280;19511;42.682;23.332;2023-07-09T11:52:58;95489.28;;;27.86;82.23
33155;BME280;19511;42.682;23.332;2023-07-09T11:55:40;95495.47;;;27.68;83.86
33155;BME280;19511;42.682;23.332;2023-07-09T11:58:10;95475.09;;;27.58;82.16
33155;BME280;19511;42.682;23.332;2023-07-09T12:00:42;95472.78;;;27.62;84.07
33155;BME280;19511;42.682;23.332;2023-07-09T12:03:18;95468.88;;;27.65;85.40
33155;BME280;19511;42.682;23.332;2023-07-09T12:05:50;95477.94;;;27.69;80.59
33155;BME280;19511;42.682;23.332;2023-07-09T12:08:22;95481.56;;;27.64;88.82
33155;BME280;19511;42.682;23.332;2023-07-09T12:10:56;95473.03;;;27.64;85.99
33155;BME280;19511;42.682;23.332;2023-07-09T12:13:21;95482.03;;;28.02;80.08
33155;BME280;19511;42.682;23.332;2023-07-09T12:15:51;95431.41;;;27.90;81.71
33155;BME280;19511;42.682;23.332;2023-07-09T12:18:17;95476.59;;;28.16;82.65
33155;BME280;19511;42.682;23.332;2023-07-09T12:20:53;95469.84;;;28.30;81.52
33155;BME280;19511;42.682;23.332;2023-07-09T12:23:26;95467.47;;;28.40;81.39
33155;BME280;19511;42.682;23.332;2023-07-09T12:25:59;95465.66;;;28.43;80.94
33155;BME280;19511;42.682;23.332;2023-07-09T12:28:26;95421.53;;;28.19;82.72
33155;BME280;19511;42.682;23.332;2023-07-09T12:30:52;95426.44;;;28.24;80.77
33155;BME280;19511;42.682;23.332;2023-07-09T12:33:20;95454.41;;;28.09;78.26
33155;BME280;19511;42.682;23.332;2023-07-09T12:35:47;95460.59;;;28.13;82.22
33155;BME280;19511;42.682;23.332;2023-07-09T12:38:21;95463.94;;;28.06;84.81
33155;BME280;19511;42.682;23.332;2023-07-09T12:40:53;95464.19;;;28.02;83.27
33155;BME280;19511;42.682;23.332;2023-07-09T12:43:28;95450.72;;;28.25;85.11
33155;BME280;19511;42.682;23.332;2023-07-09T12:46:03;95421.75;;;28.21;84.97
33155;BME280;19511;42.682;23.332;2023-07-09T12:48:30;95453.47;;;28.48;84.61
33155;BME280;19511;42.682;23.332;2023-07-09T12:51:06;95448.53;;;28.54;81.93
33155;BME280;19511;42.682;23.332;2023-07-09T12:53:35;95440.25;;;28.56;83.88
33155;BME280;19511;42.682;23.332;2023-07-09T12:56:03;95452.38;;;28.74;82.82
33155;BME280;19511;42.682;23.332;2023-07-09T12:58:38;95451.16;;;28.52;75.68
33155;BME280;19511;42.682;23.332;2023-07-09T13:01:11;95443.09;;;28.50;79.71
33155;BME280;19511;42.682;23.332;2023-07-09T13:03:55;95438.63;;;28.78;81.42
33155;BME280;19511;42.682;23.332;2023-07-09T13:06:35;95437.22;;;28.96;77.76
33155;BME280;19511;42.682;23.332;2023-07-09T13:09:02;95433.06;;;28.49;76.45
33155;BME280;19511;42.682;23.332;2023-07-09T13:11:35;95438.94;;;28.69;79.47
33155;BME280;19511;42.682;23.332;2023-07-09T13:14:11;95441.25;;;28.70;78.80
33155;BME280;19511;42.682;23.332;2023-07-09T13:16:41;95442.09;;;28.48;80.41
33155;BME280;19511;42.682;23.332;2023-07-09T13:19:06;95438.91;;;28.63;77.32
33155;BME280;19511;42.682;23.332;2023-07-09T13:21:32;95435.78;;;28.78;79.26
33155;BME280;19511;42.682;23.332;2023-07-09T13:23:58;95442.44;;;28.86;75.61
33155;BME280;19511;42.682;23.332;2023-07-09T13:26:24;95449.94;;;28.89;77.55
33155;BME280;19511;42.682;23.332;2023-07-09T13:28:49;95450.81;;;28.73;80.17
33155;BME280;19511;42.682;23.332;2023-07-09T13:31:23;95436.75;;;28.86;80.65
33155;BME280;19511;42.682;23.332;2023-07-09T13:33:56;95447.13;;;29.25;78.87
33155;BME280;19511;42.682;23.332;2023-07-09T13:36:23;95442.47;;;29.58;75.84
33155;BME280;19511;42.682;23.332;2023-07-09T13:38:50;95425.53;;;29.41;73.90
33155;BME280;19511;42.682;23.332;2023-07-09T13:41:17;95448.19;;;29.58;79.43
33155;BME280;19511;42.682;23.332;2023-07-09T13:43:47;95438.69;;;29.75;74.43